Time;durP1;ratioP1;P1;durP2;ratioP2;P2;SDS_P1;SDS_P2;PMS_P1;PMS_P2;Temp;Humidity;BMP_temperature;BMP_pressure;BME280_temperature;BME280_humidity;BME280_pressure;Samples;Min_cycle;Max_cycle;Signal;HPM_P1;HPM_P2
2021/01/07 00:02:22;;;;;;;23.88;14.07;;;6.00;66.80;;;;;;5056489;28;20029;-69
2021/01/07 00:04:48;;;;;;;22.10;13.27;;;6.00;66.80;;;;;;5056436;28;20025;-69
2021/01/07 00:07:14;;;;;;;22.58;14.00;;;6.00;66.70;;;;;;5056953;28;20021;-69
2021/01/07 00:09:40;;;;;;;22.10;13.77;;;6.00;66.90;;;;;;5056837;28;20033;-69
2021/01/07 00:12:05;;;;;;;22.10;12.80;;;6.00;66.90;;;;;;5054995;28;20107;-70
2021/01/07 00:14:31;;;;;;;22.02;12.43;;;6.00;67.10;;;;;;5056821;28;20127;-70
2021/01/07 00:16:57;;;;;;;21.95;13.40;;;6.00;67.20;;;;;;5056198;28;20071;-70
2021/01/07 00:19:23;;;;;;;26.17;15.27;;;6.00;67.80;;;;;;5056277;28;20428;-69
2021/01/07 00:21:49;;;;;;;31.05;15.07;;;6.00;67.10;;;;;;5056122;28;20605;-69
2021/01/07 00:24:15;;;;;;;21.80;12.95;;;6.00;66.90;;;;;;5055820;28;20520;-69
2021/01/07 00:26:40;;;;;;;25.42;14.77;;;6.00;66.80;;;;;;5056030;28;20029;-69
2021/01/07 00:29:06;;;;;;;23.90;15.13;;;6.00;66.80;;;;;;5055957;28;20390;-69
2021/01/07 00:31:32;;;;;;;23.95;14.10;;;6.00;66.80;;;;;;5055870;28;20415;-69
2021/01/07 00:33:58;;;;;;;22.90;14.73;;;6.00;66.80;;;;;;5056218;28;20071;-69
2021/01/07 00:36:24;;;;;;;24.75;14.32;;;6.00;66.80;;;;;;5055915;28;20470;-70
2021/01/07 00:38:50;;;;;;;24.73;15.10;;;6.00;66.90;;;;;;5056378;28;20024;-69
2021/01/07 00:41:20;;;;;;;26.83;15.95;;;6.00;67.10;;;;;;5055771;28;20021;-70
2021/01/07 00:43:47;;;;;;;27.23;16.63;;;6.00;66.90;;;;;;5055715;28;20025;-70
2021/01/07 00:46:13;;;;;;;23.55;14.60;;;6.00;66.80;;;;;;5055684;28;20025;-69
2021/01/07 00:48:40;;;;;;;23.73;14.65;;;6.00;66.70;;;;;;5054370;28;20036;-68
2021/01/07 00:51:07;;;;;;;21.35;13.48;;;6.00;66.70;;;;;;5055631;28;20068;-69
2021/01/07 00:53:34;;;;;;;24.85;15.05;;;6.00;66.80;;;;;;5055443;28;20467;-69
2021/01/07 00:56:00;;;;;;;24.23;15.30;;;6.00;66.80;;;;;;5055420;28;20024;-69
2021/01/07 00:58:26;;;;;;;28.77;16.08;;;6.00;66.80;;;;;;5055335;28;20028;-69
2021/01/07 01:00:52;;;;;;;20.20;13.18;;;6.00;66.90;;;;;;5055886;28;20028;-70
2021/01/07 01:03:17;;;;;;;21.73;13.45;;;6.00;66.80;;;;;;5055314;28;20036;-69
2021/01/07 01:05:43;;;;;;;21.17;13.50;;;6.10;66.90;;;;;;5055287;28;20028;-70
2021/01/07 01:08:09;;;;;;;24.67;15.65;;;6.10;66.80;;;;;;5055517;28;20462;-69
2021/01/07 01:10:34;;;;;;;22.98;13.93;;;6.10;66.60;;;;;;5055150;28;20021;-70
2021/01/07 01:13:01;;;;;;;23.75;13.88;;;6.10;67.40;;;;;;5064411;28;20107;-71
2021/01/07 01:15:27;;;;;;;21.20;13.27;;;6.10;66.60;;;;;;5073308;28;20025;-69
2021/01/07 01:17:52;;;;;;;25.63;15.48;;;6.10;66.50;;;;;;5062310;28;20138;-69
2021/01/07 01:20:18;;;;;;;24.25;14.68;;;6.10;66.40;;;;;;5054803;28;20083;-69
2021/01/07 01:22:44;;;;;;;20.58;12.68;;;6.10;66.30;;;;;;5054047;28;20025;-70
2021/01/07 01:25:11;;;;;;;24.95;15.20;;;6.10;66.30;;;;;;5053976;28;20033;-69
2021/01/07 01:27:42;;;;;;;23.65;14.40;;;6.10;66.10;;;;;;5053644;28;20454;-70
2021/01/07 01:30:09;;;;;;;26.52;16.42;;;6.00;66.00;;;;;;5055049;28;20029;-69
2021/01/07 01:32:36;;;;;;;25.27;15.15;;;6.00;65.80;;;;;;5054829;28;20418;-69
2021/01/07 01:35:03;;;;;;;22.85;14.52;;;6.00;65.80;;;;;;5054965;28;20074;-70
2021/01/07 01:37:28;;;;;;;25.05;15.38;;;5.90;65.80;;;;;;5054987;28;20021;-69
2021/01/07 01:39:54;;;;;;;27.48;16.67;;;5.90;65.70;;;;;;5054865;28;20024;-69
2021/01/07 01:42:27;;;;;;;25.88;16.67;;;5.90;65.70;;;;;;5054584;28;20017;-70
2021/01/07 01:44:53;;;;;;;24.98;14.68;;;5.90;65.70;;;;;;5054574;28;20020;-70
2021/01/07 01:47:20;;;;;;;24.88;15.23;;;5.90;65.80;;;;;;5055011;28;20383;-70
2021/01/07 01:49:50;;;;;;;24.83;14.95;;;5.90;65.90;;;;;;5054415;28;20021;-70
2021/01/07 01:52:20;;;;;;;21.77;13.70;;;5.90;66.00;;;;;;5054473;28;20025;-70
2021/01/07 01:54:46;;;;;;;24.20;15.18;;;5.80;65.90;;;;;;5053094;28;20036;-69
2021/01/07 01:57:15;;;;;;;24.38;14.93;;;5.90;66.00;;;;;;5054225;28;20017;-70
2021/01/07 01:59:42;;;;;;;23.55;14.63;;;5.90;66.00;;;;;;5053479;28;20087;-70
2021/01/07 02:02:11;;;;;;;23.33;13.43;;;5.90;66.00;;;;;;5063727;28;20032;-68
2021/01/07 02:04:37;;;;;;;28.05;16.27;;;5.90;66.10;;;;;;5079512;28;20420;-70
2021/01/07 02:07:06;;;;;;;24.40;15.30;;;5.90;66.20;;;;;;5083293;28;20020;-70
2021/01/07 02:09:33;;;;;;;23.50;14.82;;;5.90;66.10;;;;;;5086700;28;20028;-69
2021/01/07 02:11:59;;;;;;;25.70;14.75;;;5.90;66.10;;;;;;5075734;28;20382;-70
2021/01/07 02:14:26;;;;;;;25.88;14.98;;;5.90;66.20;;;;;;5088570;28;20028;-69
2021/01/07 02:16:54;;;;;;;26.27;15.32;;;6.00;66.10;;;;;;5077077;28;20012;-69
2021/01/07 02:19:21;;;;;;;26.40;15.77;;;6.00;66.00;;;;;;5081002;28;20367;-69
2021/01/07 02:21:47;;;;;;;22.70;14.25;;;6.00;66.00;;;;;;5085512;28;20032;-70
2021/01/07 02:24:14;;;;;;;24.70;14.05;;;6.00;66.00;;;;;;5089913;28;20496;-70
2021/01/07 02:26:41;;;;;;;21.80;13.45;;;6.00;65.90;;;;;;5080790;28;20024;-69
2021/01/07 02:29:07;;;;;;;25.05;15.65;;;6.00;66.00;;;;;;5082417;28;20036;-69
2021/01/07 02:31:33;;;;;;;22.17;14.05;;;6.00;65.90;;;;;;5088207;28;20032;-69
2021/01/07 02:33:59;;;;;;;27.88;15.45;;;6.00;65.80;;;;;;5075459;28;20024;-69
2021/01/07 02:36:24;;;;;;;29.10;15.35;;;5.90;65.80;;;;;;5088653;28;20024;-68
2021/01/07 02:38:50;;;;;;;25.63;15.55;;;5.90;65.90;;;;;;5084874;28;20032;-69
2021/01/07 02:41:16;;;;;;;28.30;15.07;;;5.90;65.90;;;;;;5081011;28;20032;-69
2021/01/07 02:43:42;;;;;;;26.60;14.88;;;5.90;65.70;;;;;;5089215;28;20027;-69
2021/01/07 02:46:08;;;;;;;28.23;15.95;;;5.90;65.60;;;;;;5076635;28;20016;-69
2021/01/07 02:48:34;;;;;;;25.55;15.43;;;5.90;65.70;;;;;;5086893;28;20373;-68
2021/01/07 02:51:00;;;;;;;22.20;13.30;;;5.80;65.90;;;;;;5081968;28;20378;-70
2021/01/07 02:53:26;;;;;;;25.33;15.02;;;5.80;66.80;;;;;;5079566;28;20070;-70
2021/01/07 02:55:51;;;;;;;23.80;14.55;;;5.80;66.10;;;;;;5089765;28;20469;-70
2021/01/07 02:58:17;;;;;;;22.52;13.40;;;5.80;66.20;;;;;;5074367;28;20416;-70
2021/01/07 03:00:43;;;;;;;22.27;14.40;;;5.80;66.30;;;;;;5085408;28;20111;-70
2021/01/07 03:03:08;;;;;;;21.52;13.90;;;5.80;66.40;;;;;;5076883;28;20016;-68
2021/01/07 03:05:34;;;;;;;25.17;15.25;;;5.80;66.40;;;;;;5078326;28;20027;-70
2021/01/07 03:08:00;;;;;;;24.98;14.52;;;5.80;66.50;;;;;;5089686;28;20377;-70
2021/01/07 03:10:26;;;;;;;24.38;14.65;;;5.80;66.60;;;;;;5077099;28;20024;-70
2021/01/07 03:12:52;;;;;;;25.13;13.85;;;5.80;66.60;;;;;;5086119;28;20016;-70
2021/01/07 03:15:18;;;;;;;20.60;11.95;;;5.80;66.70;;;;;;5089374;28;20032;-70
2021/01/07 03:17:45;;;;;;;24.80;13.80;;;5.80;66.70;;;;;;5081012;28;20029;-70
2021/01/07 03:20:14;;;;;;;21.55;13.20;;;5.80;66.80;;;;;;5075080;28;20408;-70
2021/01/07 03:22:41;;;;;;;21.40;13.27;;;5.80;66.90;;;;;;5089594;28;20052;-69
2021/01/07 03:25:07;;;;;;;22.77;13.57;;;5.80;66.90;;;;;;5076943;28;20032;-70
2021/01/07 03:27:34;;;;;;;19.08;12.30;;;5.80;66.80;;;;;;5091679;28;20385;-70
2021/01/07 03:30:00;;;;;;;19.73;12.02;;;5.80;66.80;;;;;;5080155;28;20025;-70
2021/01/07 03:32:26;;;;;;;23.08;15.02;;;5.80;67.70;;;;;;5083509;28;20093;-69
2021/01/07 03:34:52;;;;;;;22.92;14.55;;;5.80;67.20;;;;;;5075438;28;20038;-70
2021/01/07 03:37:19;;;;;;;22.00;14.80;;;5.80;67.20;;;;;;5076381;28;20031;-70
2021/01/07 03:39:45;;;;;;;25.05;15.52;;;5.90;67.30;;;;;;5067464;28;20036;-69
2021/01/07 03:42:11;;;;;;;23.50;14.23;;;5.80;67.20;;;;;;5057051;28;20074;-70
2021/01/07 03:44:37;;;;;;;25.67;14.82;;;5.90;67.10;;;;;;5055604;28;20079;-70
2021/01/07 03:47:03;;;;;;;28.88;16.33;;;5.90;67.10;;;;;;5057067;28;20424;-70
2021/01/07 03:49:29;;;;;;;21.15;12.95;;;5.90;67.30;;;;;;5055483;28;20028;-71
2021/01/07 03:51:54;;;;;;;25.77;15.00;;;5.90;67.40;;;;;;5056620;28;20035;-70
2021/01/07 03:54:20;;;;;;;23.80;14.55;;;5.90;67.30;;;;;;5056868;28;20083;-70
2021/01/07 03:56:46;;;;;;;21.77;13.02;;;5.90;67.20;;;;;;5056635;28;20025;-70
2021/01/07 03:59:12;;;;;;;24.50;15.20;;;5.90;67.20;;;;;;5056598;28;20459;-69
2021/01/07 04:01:37;;;;;;;27.60;16.65;;;5.90;67.20;;;;;;5056451;28;20024;-69
2021/01/07 04:04:03;;;;;;;23.02;14.20;;;5.90;67.10;;;;;;5056774;28;20025;-70
2021/01/07 04:06:29;;;;;;;30.40;15.82;;;5.90;66.90;;;;;;5056430;28;20017;-70
2021/01/07 04:08:54;;;;;;;22.23;13.63;;;5.90;66.90;;;;;;5056493;28;20025;-70
2021/01/07 04:11:20;;;;;;;23.15;14.27;;;5.90;67.00;;;;;;5056242;28;20494;-69
2021/01/07 04:13:46;;;;;;;19.92;12.35;;;5.90;67.00;;;;;;5056324;28;20100;-69
2021/01/07 04:16:13;;;;;;;20.05;13.43;;;5.90;67.00;;;;;;5056474;28;20389;-70
2021/01/07 04:18:39;;;;;;;19.13;12.23;;;5.90;67.00;;;;;;5056419;28;20021;-70
2021/01/07 04:21:05;;;;;;;23.00;13.65;;;5.90;67.00;;;;;;5056122;28;20469;-71
2021/01/07 04:23:31;;;;;;;25.00;14.07;;;5.90;67.20;;;;;;5055612;28;20053;-70
2021/01/07 04:25:57;;;;;;;23.80;14.85;;;5.90;67.10;;;;;;5056042;28;20029;-69
2021/01/07 04:28:23;;;;;;;23.83;13.55;;;5.90;67.20;;;;;;5054750;28;20029;-70
2021/01/07 04:30:49;;;;;;;23.00;13.48;;;5.90;67.20;;;;;;5054613;28;20116;-70
2021/01/07 04:33:15;;;;;;;24.50;14.85;;;5.90;67.20;;;;;;5056042;28;20029;-71
2021/01/07 04:35:41;;;;;;;24.85;14.00;;;5.90;67.30;;;;;;5056134;28;20099;-70
2021/01/07 04:38:06;;;;;;;25.05;14.40;;;5.90;67.30;;;;;;5055393;28;20021;-70
2021/01/07 04:40:32;;;;;;;27.92;15.52;;;5.90;67.50;;;;;;5063150;28;20047;-69
2021/01/07 04:42:58;;;;;;;26.85;15.70;;;5.90;67.40;;;;;;5075545;28;20036;-69
2021/01/07 04:45:24;;;;;;;22.48;13.40;;;5.90;67.30;;;;;;5075562;28;20024;-69
2021/01/07 04:47:50;;;;;;;20.98;11.85;;;5.90;68.00;;;;;;5075933;28;20390;-70
2021/01/07 04:50:17;;;;;;;19.92;12.90;;;5.90;67.30;;;;;;5075533;28;20082;-70
2021/01/07 04:52:43;;;;;;;24.58;14.88;;;6.00;67.50;;;;;;5075402;28;20024;-69
2021/01/07 04:55:13;;;;;;;22.10;12.38;;;6.00;67.50;;;;;;5075607;28;20044;-69
2021/01/07 04:57:40;;;;;;;23.48;13.05;;;6.00;68.20;;;;;;5075388;28;20021;-70
2021/01/07 05:00:08;;;;;;;25.23;14.88;;;6.00;67.40;;;;;;5075307;28;20021;-70
2021/01/07 05:02:34;;;;;;;26.83;14.77;;;6.00;67.30;;;;;;5057560;28;20032;-70
2021/01/07 05:05:02;;;;;;;22.38;14.63;;;6.00;67.30;;;;;;5075269;28;20021;-69
2021/01/07 05:07:28;;;;;;;24.33;13.50;;;6.00;67.10;;;;;;5073495;28;20040;-69
2021/01/07 05:10:03;;;;;;;23.48;14.88;;;6.00;67.10;;;;;;5073672;28;20062;-70
2021/01/07 05:12:29;;;;;;;25.17;14.27;;;5.90;67.20;;;;;;5063127;28;20036;-70
2021/01/07 05:14:55;;;;;;;28.02;15.35;;;6.00;67.10;;;;;;5055094;28;20019;-71
2021/01/07 05:17:21;;;;;;;20.58;13.40;;;6.00;67.10;;;;;;5053706;28;20052;-70
2021/01/07 05:19:47;;;;;;;22.52;14.05;;;5.90;67.10;;;;;;5053822;28;20017;-70
2021/01/07 05:22:12;;;;;;;18.65;12.50;;;5.90;67.20;;;;;;5054920;28;20047;-70
2021/01/07 05:24:39;;;;;;;20.98;12.70;;;6.00;67.20;;;;;;5061464;28;20044;-70
2021/01/07 05:27:17;;;;;;;30.63;16.33;;;5.90;67.30;;;;;;5074834;28;20044;-71
2021/01/07 05:29:44;;;;;;;32.90;17.02;;;6.00;67.50;;;;;;5073479;28;20466;-69
2021/01/07 05:32:11;;;;;;;25.17;14.23;;;6.00;67.60;;;;;;5079069;28;20032;-69
2021/01/07 05:34:49;;;;;;;51.65;25.35;;;6.00;67.50;;;;;;5092539;28;20020;-70
2021/01/07 05:37:17;;;;;;;35.15;18.63;;;6.00;67.30;;;;;;5080217;28;20028;-69
2021/01/07 05:39:48;;;;;;;25.10;14.40;;;6.00;67.20;;;;;;5072479;28;20032;-70
2021/01/07 05:42:14;;;;;;;23.67;14.52;;;6.00;67.10;;;;;;5074467;28;20488;-70
2021/01/07 05:45:03;;;;;;;25.05;13.57;;;6.00;66.90;;;;;;5074491;28;20073;-69
2021/01/07 05:47:29;;;;;;;23.05;12.80;;;6.00;67.00;;;;;;5074673;28;20537;-70
2021/01/07 05:49:56;;;;;;;19.08;11.90;;;6.00;67.40;;;;;;5074593;28;20031;-70
2021/01/07 05:52:22;;;;;;;19.85;12.18;;;6.00;67.30;;;;;;5068676;28;20082;-70
2021/01/07 05:54:54;;;;;;;20.85;12.60;;;6.00;67.30;;;;;;5054284;28;20048;-69
2021/01/07 05:57:22;;;;;;;22.75;13.13;;;6.00;67.40;;;;;;5055532;28;20017;-70
2021/01/07 05:59:48;;;;;;;20.65;12.77;;;6.00;67.40;;;;;;5074299;28;20373;-70
2021/01/07 06:02:16;;;;;;;22.85;14.48;;;6.00;67.20;;;;;;5074333;28;20020;-70
2021/01/07 06:04:47;;;;;;;21.40;13.65;;;6.00;67.10;;;;;;5072534;28;20381;-69
2021/01/07 06:07:16;;;;;;;26.80;15.40;;;6.00;67.10;;;;;;5074150;28;20508;-70
2021/01/07 06:09:45;;;;;;;23.95;13.32;;;6.00;66.90;;;;;;5073447;28;20031;-70
2021/01/07 06:12:12;;;;;;;24.08;14.75;;;6.00;66.80;;;;;;5053945;28;20033;-70
2021/01/07 06:14:41;;;;;;;22.73;15.25;;;6.00;66.80;;;;;;5054273;28;20382;-70
2021/01/07 06:17:07;;;;;;;22.75;14.98;;;6.00;66.60;;;;;;5053947;28;20017;-70
2021/01/07 06:19:36;;;;;;;22.88;14.10;;;6.00;66.50;;;;;;5052646;28;20021;-69
2021/01/07 06:22:11;;;;;;;25.13;15.05;;;6.00;66.10;;;;;;5054083;28;20028;-69
2021/01/07 06:24:42;;;;;;;24.90;13.10;;;6.00;66.00;;;;;;5053619;28;20494;-69
2021/01/07 06:27:37;;;;;;;24.88;14.38;;;5.90;66.00;;;;;;5068930;28;20047;-70
2021/01/07 06:30:02;;;;;;;22.65;13.77;;;5.90;66.10;;;;;;5061148;28;20044;-69
2021/01/07 06:32:29;;;;;;;23.50;14.00;;;5.90;66.10;;;;;;5051662;28;20027;-69
2021/01/07 06:34:57;;;;;;;24.45;14.52;;;5.90;66.20;;;;;;5051986;28;20033;-69
2021/01/07 06:37:40;;;;;;;20.02;12.50;;;5.90;66.30;;;;;;5051697;28;20044;-70
2021/01/07 06:40:11;;;;;;;23.05;13.95;;;5.90;66.50;;;;;;5051882;28;20037;-70
2021/01/07 06:42:39;;;;;;;20.50;12.95;;;5.90;66.50;;;;;;5034686;28;20033;-69
2021/01/07 06:45:07;;;;;;;26.45;15.02;;;5.90;66.40;;;;;;5051434;28;20029;-69
2021/01/07 06:47:33;;;;;;;22.67;14.10;;;5.90;66.50;;;;;;5051463;28;20410;-69
2021/01/07 06:50:03;;;;;;;23.58;14.18;;;5.90;66.50;;;;;;5051210;28;20032;-69
2021/01/07 06:52:38;;;;;;;24.40;14.85;;;5.90;66.70;;;;;;5051250;28;20138;-69
2021/01/07 06:55:07;;;;;;;22.48;14.25;;;5.90;66.80;;;;;;5051307;28;20053;-69
2021/01/07 06:57:42;;;;;;;23.80;14.63;;;5.90;66.70;;;;;;5051546;28;20029;-69
2021/01/07 07:00:10;;;;;;;28.92;16.98;;;5.90;66.40;;;;;;5051323;28;20441;-69
2021/01/07 07:02:36;;;;;;;24.77;14.93;;;5.90;66.50;;;;;;5051008;28;20063;-70
2021/01/07 07:05:08;;;;;;;26.23;14.55;;;5.90;66.40;;;;;;5051122;28;20108;-69
2021/01/07 07:07:39;;;;;;;21.45;13.65;;;5.90;66.50;;;;;;5051420;28;20159;-68
2021/01/07 07:10:17;;;;;;;21.05;12.85;;;5.90;66.50;;;;;;5051686;28;20029;-69
2021/01/07 07:12:46;;;;;;;22.17;13.35;;;5.90;66.50;;;;;;5055645;28;20378;-68
2021/01/07 07:15:13;;;;;;;19.73;12.82;;;5.90;66.50;;;;;;5073523;28;20028;-69
2021/01/07 07:17:48;;;;;;;25.67;13.80;;;5.90;66.70;;;;;;5073535;28;20579;-69
2021/01/07 07:20:21;;;;;;;25.80;13.88;;;6.00;66.80;;;;;;5073511;28;20077;-70
2021/01/07 07:22:47;;;;;;;20.83;12.20;;;6.00;66.80;;;;;;5067758;28;20017;-70
2021/01/07 07:25:21;;;;;;;25.98;13.35;;;6.00;66.80;;;;;;5053284;28;20017;-69
2021/01/07 07:27:51;;;;;;;22.38;12.70;;;6.10;67.00;;;;;;5053306;28;20025;-69
2021/01/07 07:30:27;;;;;;;18.23;11.43;;;6.10;66.80;;;;;;5068426;28;20032;-69
2021/01/07 07:32:54;;;;;;;21.13;12.82;;;6.10;66.90;;;;;;5072608;28;20029;-69
2021/01/07 07:35:22;;;;;;;21.98;13.63;;;6.10;67.00;;;;;;5069907;28;20167;-68
2021/01/07 07:37:48;;;;;;;21.17;13.45;;;6.20;66.90;;;;;;5072449;28;20024;-69
2021/01/07 07:40:28;;;;;;;20.65;12.82;;;6.20;66.50;;;;;;5054459;28;20052;-69
2021/01/07 07:42:56;;;;;;;32.78;15.38;;;6.10;66.30;;;;;;5053162;28;20492;-70
2021/01/07 07:45:25;;;;;;;20.25;13.75;;;6.20;66.70;;;;;;5052893;28;20021;-70
2021/01/07 07:47:51;;;;;;;18.65;11.70;;;6.20;66.80;;;;;;5053086;28;20482;-70
2021/01/07 07:50:27;;;;;;;19.10;12.20;;;6.30;66.70;;;;;;5051311;28;20031;-69
2021/01/07 07:53:04;;;;;;;21.45;11.15;;;6.30;66.80;;;;;;5052820;28;20021;-69
2021/01/07 07:55:36;;;;;;;24.73;14.68;;;6.40;67.00;;;;;;5052702;28;20363;-70
2021/01/07 07:58:15;;;;;;;24.33;14.45;;;6.40;67.20;;;;;;5052956;28;20025;-70
2021/01/07 08:00:52;;;;;;;29.73;18.00;;;6.50;67.30;;;;;;5075048;28;20025;-68
2021/01/07 08:03:29;;;;;;;27.67;15.48;;;6.50;67.20;;;;;;5076597;28;20027;-69
2021/01/07 08:05:59;;;;;;;31.17;15.02;;;6.50;66.90;;;;;;5076792;28;20047;-69
2021/01/07 08:08:27;;;;;;;25.05;14.27;;;6.50;66.60;;;;;;5063265;28;20021;-69
2021/01/07 08:10:55;;;;;;;16.88;11.05;;;6.60;67.10;;;;;;5056127;28;20036;-69
2021/01/07 08:13:29;;;;;;;17.90;11.48;;;6.50;66.30;;;;;;5056076;28;20021;-70
2021/01/07 08:15:58;;;;;;;19.17;11.90;;;6.60;66.50;;;;;;5056187;28;20419;-69
2021/01/07 08:18:26;;;;;;;18.42;11.98;;;6.60;66.40;;;;;;5056243;28;20436;-69
2021/01/07 08:20:53;;;;;;;28.02;15.65;;;6.60;66.50;;;;;;5054778;28;20025;-69
2021/01/07 08:23:21;;;;;;;42.25;24.48;;;6.60;66.50;;;;;;5056093;28;20095;-69
2021/01/07 08:25:49;;;;;;;26.85;17.08;;;6.60;66.50;;;;;;5056021;28;20021;-69
2021/01/07 08:28:21;;;;;;;19.10;12.38;;;6.60;66.10;;;;;;5054781;28;20032;-69
2021/01/07 08:30:57;;;;;;;19.67;12.15;;;6.60;66.00;;;;;;5054602;28;20025;-69
2021/01/07 08:33:24;;;;;;;21.35;13.63;;;6.60;66.20;;;;;;5054521;28;20086;-70
2021/01/07 08:35:52;;;;;;;24.80;15.55;;;6.60;66.30;;;;;;5055851;28;20025;-68
2021/01/07 08:38:28;;;;;;;20.40;13.30;;;6.60;66.00;;;;;;5056260;28;20103;-68
2021/01/07 08:41:13;;;;;;;30.65;14.70;;;6.60;66.20;;;;;;5056187;28;20025;-69
2021/01/07 08:43:40;;;;;;;18.48;11.88;;;6.50;66.00;;;;;;5056165;28;20021;-68
2021/01/07 08:46:19;;;;;;;18.75;11.45;;;6.50;65.70;;;;;;5055737;28;20048;-70
2021/01/07 08:48:58;;;;;;;17.52;10.32;;;6.50;65.90;;;;;;5055495;28;20029;-69
2021/01/07 08:51:24;;;;;;;16.80;10.73;;;6.50;66.70;;;;;;5055616;28;20402;-70
2021/01/07 08:53:59;;;;;;;19.00;12.18;;;6.50;66.30;;;;;;5055336;28;20013;-69
2021/01/07 08:56:35;;;;;;;19.10;11.55;;;6.60;67.20;;;;;;5054113;28;20363;-69
2021/01/07 08:59:40;;;;;;;18.08;11.32;;;6.60;67.20;;;;;;5055114;28;20032;-68
2021/01/07 09:02:08;;;;;;;21.45;13.13;;;6.60;66.60;;;;;;5055457;28;20392;-70
2021/01/07 09:04:38;;;;;;;20.02;12.25;;;6.60;66.60;;;;;;5054942;28;20449;-70
2021/01/07 09:07:05;;;;;;;19.38;12.38;;;6.70;66.60;;;;;;5064011;28;20036;-68
2021/01/07 09:09:44;;;;;;;17.98;11.73;;;6.70;66.70;;;;;;5059230;28;20033;-69
2021/01/07 09:12:22;;;;;;;20.77;13.20;;;6.70;66.80;;;;;;5055139;28;20049;-69
2021/01/07 09:14:57;;;;;;;17.33;11.65;;;6.70;66.50;;;;;;5064297;28;20095;-68
2021/01/07 09:17:42;;;;;;;20.98;13.45;;;6.70;66.50;;;;;;5075568;28;20029;-69
2021/01/07 09:20:13;;;;;;;19.75;11.95;;;6.80;66.10;;;;;;5075346;28;20130;-69
2021/01/07 09:22:40;;;;;;;18.23;12.20;;;6.80;66.00;;;;;;5068714;28;20032;-68
2021/01/07 09:25:17;;;;;;;21.75;12.02;;;6.80;66.20;;;;;;5052824;28;20040;-68
2021/01/07 09:27:48;;;;;;;24.45;12.40;;;6.80;66.30;;;;;;5060599;28;20620;-69
2021/01/07 09:30:14;;;;;;;20.58;12.82;;;6.70;66.30;;;;;;5052686;28;20040;-69
2021/01/07 09:32:40;;;;;;;23.05;13.50;;;6.80;66.50;;;;;;5054041;28;20021;-69
2021/01/07 09:35:07;;;;;;;24.00;14.02;;;6.80;66.60;;;;;;5054011;28;20052;-68
2021/01/07 09:37:35;;;;;;;18.00;11.50;;;6.80;66.50;;;;;;5054123;28;20096;-68
2021/01/07 09:40:04;;;;;;;23.38;13.68;;;6.80;66.40;;;;;;5054232;28;20104;-69
2021/01/07 09:42:31;;;;;;;19.90;13.38;;;6.80;66.10;;;;;;5053776;28;20036;-69
2021/01/07 09:44:57;;;;;;;21.70;13.32;;;6.80;66.00;;;;;;5053581;28;20028;-69
2021/01/07 09:47:26;;;;;;;19.50;11.60;;;6.80;65.90;;;;;;5053557;28;20040;-68
2021/01/07 09:49:52;;;;;;;18.60;12.52;;;6.80;66.00;;;;;;5053638;28;20024;-69
2021/01/07 09:52:18;;;;;;;19.77;13.40;;;6.80;66.30;;;;;;5056918;28;20103;-68
2021/01/07 09:54:44;;;;;;;22.27;13.30;;;6.90;66.20;;;;;;5053529;28;20101;-68
2021/01/07 09:57:10;;;;;;;22.95;13.50;;;6.90;66.10;;;;;;5068747;28;20437;-69
2021/01/07 09:59:36;;;;;;;20.90;12.88;;;6.90;66.30;;;;;;5061137;28;20027;-69
2021/01/07 10:02:10;;;;;;;19.08;13.20;;;6.90;66.50;;;;;;5070820;28;20028;-69
2021/01/07 10:04:41;;;;;;;26.30;15.38;;;7.00;67.60;;;;;;5066898;28;20032;-69
2021/01/07 10:07:07;;;;;;;19.85;13.63;;;7.00;66.80;;;;;;5053346;28;20033;-69
2021/01/07 10:09:33;;;;;;;30.23;16.65;;;7.00;66.70;;;;;;5053317;28;20100;-68
2021/01/07 10:11:59;;;;;;;25.40;15.40;;;7.10;66.70;;;;;;5057115;28;20100;-69
2021/01/07 10:14:27;;;;;;;25.27;14.70;;;7.10;66.70;;;;;;5070547;28;20046;-69
2021/01/07 10:17:00;;;;;;;30.35;17.98;;;7.10;66.80;;;;;;5063082;28;20017;-69
2021/01/07 10:19:28;;;;;;;28.30;15.97;;;7.20;66.50;;;;;;5053025;28;20032;-69
2021/01/07 10:22:05;;;;;;;23.10;14.80;;;7.20;66.10;;;;;;5054828;28;20060;-68
2021/01/07 10:24:34;;;;;;;20.67;12.70;;;7.20;65.90;;;;;;5060290;28;20041;-69
2021/01/07 10:27:03;;;;;;;29.60;15.25;;;7.30;66.00;;;;;;5062995;28;20021;-70
2021/01/07 10:29:30;;;;;;;22.50;14.35;;;7.30;66.00;;;;;;5065658;28;20028;-69
2021/01/07 10:32:03;;;;;;;25.67;14.88;;;7.30;66.00;;;;;;5085792;28;20012;-69
2021/01/07 10:34:30;;;;;;;26.20;16.08;;;7.40;66.30;;;;;;5065315;28;20040;-68
2021/01/07 10:36:57;;;;;;;23.98;15.65;;;7.40;66.20;;;;;;5057668;28;20460;-68
2021/01/07 10:39:25;;;;;;;25.42;16.38;;;7.50;65.90;;;;;;5062987;28;20116;-69
2021/01/07 10:41:55;;;;;;;21.77;13.75;;;7.50;65.70;;;;;;5059208;28;20398;-69
2021/01/07 10:44:22;;;;;;;21.50;14.85;;;7.60;65.90;;;;;;5068015;28;20375;-69
2021/01/07 10:46:52;;;;;;;19.70;13.23;;;7.60;65.70;;;;;;5071459;28;20080;-69
2021/01/07 10:49:19;;;;;;;19.05;13.48;;;7.60;66.10;;;;;;5070100;28;20385;-70
2021/01/07 10:52:04;;;;;;;22.95;13.90;;;7.70;66.40;;;;;;5052291;28;20040;-69
2021/01/07 10:55:00;;;;;;;23.20;14.73;;;7.80;66.40;;;;;;5055543;28;20021;-69
2021/01/07 10:57:54;;;;;;;21.25;14.00;;;7.80;65.70;;;;;;5053238;28;20064;-69
2021/01/07 11:00:38;;;;;;;23.27;14.55;;;7.90;65.30;;;;;;5056845;28;20437;-69
2021/01/07 11:03:28;;;;;;;20.85;13.40;;;7.90;65.20;;;;;;5054244;28;20547;-68
2021/01/07 11:06:02;;;;;;;21.40;14.25;;;7.90;65.60;;;;;;5066633;28;20508;-68
2021/01/07 11:08:39;;;;;;;24.08;13.85;;;7.90;65.80;;;;;;5067374;28;20032;-69
2021/01/07 11:11:23;;;;;;;20.52;13.73;;;8.00;66.10;;;;;;5053001;28;20040;-69
2021/01/07 11:13:59;;;;;;;24.27;15.00;;;8.00;66.20;;;;;;5061829;28;20405;-69
2021/01/07 11:16:41;;;;;;;25.42;15.38;;;8.10;66.20;;;;;;5071739;28;20036;-68
2021/01/07 11:19:09;;;;;;;26.33;15.40;;;8.10;65.60;;;;;;5073244;28;20025;-69
2021/01/07 11:21:45;;;;;;;21.90;13.85;;;8.10;65.10;;;;;;5068234;28;20028;-68
2021/01/07 11:24:11;;;;;;;23.17;14.52;;;8.10;65.20;;;;;;5072510;28;20049;-68
2021/01/07 11:26:39;;;;;;;22.08;13.70;;;8.20;65.10;;;;;;5068047;28;20210;-69
2021/01/07 11:29:06;;;;;;;21.48;12.70;;;8.20;64.70;;;;;;5064221;28;20029;-69
2021/01/07 11:31:36;;;;;;;23.30;13.57;;;8.20;64.90;;;;;;5064266;28;20032;-68
2021/01/07 11:34:02;;;;;;;21.98;13.50;;;8.20;64.90;;;;;;5058512;28;20386;-68
2021/01/07 11:36:32;;;;;;;22.38;15.02;;;8.30;65.00;;;;;;5064978;28;20050;-69
2021/01/07 11:39:02;;;;;;;21.15;12.88;;;8.30;64.30;;;;;;5075873;28;20050;-69
2021/01/07 11:41:48;;;;;;;21.23;13.95;;;8.30;64.40;;;;;;5060890;28;20029;-70
2021/01/07 11:44:30;;;;;;;21.35;13.13;;;8.30;64.20;;;;;;5074056;28;20025;-68
2021/01/07 11:47:04;;;;;;;20.42;12.35;;;8.30;64.50;;;;;;5067889;28;20020;-69
2021/01/07 11:49:32;;;;;;;;;;;8.40;64.60;;;;;;5057047;28;20448;-69
2021/01/07 11:51:58;;;;;;;20.83;12.65;;;8.40;64.80;;;;;;5059769;28;19913;-70
2021/01/07 11:54:27;;;;;;;17.63;11.77;;;8.40;64.20;;;;;;5071743;28;20086;-68
2021/01/07 11:56:55;;;;;;;18.48;12.68;;;8.40;63.60;;;;;;5064005;28;20021;-68
2021/01/07 11:59:23;;;;;;;20.77;13.93;;;8.40;63.70;;;;;;5056748;28;20029;-67
2021/01/07 12:01:50;;;;;;;20.30;13.60;;;8.30;63.60;;;;;;5059522;28;20029;-69
2021/01/07 12:04:16;;;;;;;21.42;13.30;;;8.30;64.00;;;;;;5055836;28;20032;-68
2021/01/07 12:07:03;;;;;;;21.42;13.55;;;8.30;64.40;;;;;;5059528;28;20052;-68
2021/01/07 12:09:42;;;;;;;25.10;15.48;;;8.30;64.10;;;;;;5056910;28;20025;-68
2021/01/07 12:12:15;;;;;;;18.23;12.38;;;8.30;63.40;;;;;;5060060;28;20028;-68
2021/01/07 12:14:52;;;;;;;23.92;13.27;;;8.30;63.80;;;;;;5066032;28;20040;-68
2021/01/07 12:17:18;;;;;;;30.02;15.05;;;8.40;64.00;;;;;;5069345;28;20016;-67
2021/01/07 12:19:44;;;;;;;28.25;14.48;;;8.40;64.10;;;;;;5062718;28;20539;-67
2021/01/07 12:22:15;;;;;;;19.77;12.45;;;8.50;63.70;;;;;;5067283;28;20032;-67
2021/01/07 12:24:43;;;;;;;20.23;13.35;;;8.50;64.10;;;;;;5059162;28;20382;-68
2021/01/07 12:27:10;;;;;;;22.15;13.65;;;8.60;64.20;;;;;;5076364;28;20032;-68
2021/01/07 12:29:40;;;;;;;20.95;13.35;;;8.60;64.30;;;;;;5076015;28;20511;-67
2021/01/07 12:32:23;;;;;;;18.17;11.18;;;8.70;63.70;;;;;;5075898;28;20039;-67
2021/01/07 12:35:12;;;;;;;27.58;13.48;;;8.80;64.00;;;;;;5075988;28;20021;-67
2021/01/07 12:38:16;;;;;;;20.42;12.30;;;8.80;63.60;;;;;;5074609;28;20492;-67
2021/01/07 12:40:47;;;;;;;17.77;12.02;;;8.90;63.10;;;;;;5076071;28;20064;-68
2021/01/07 12:43:17;;;;;;;14.48;10.85;;;8.90;63.50;;;;;;5076027;28;20020;-69
2021/01/07 12:45:46;;;;;;;18.15;11.52;;;8.90;63.80;;;;;;5075506;28;20021;-68
2021/01/07 12:48:13;;;;;;;19.33;12.52;;;9.00;64.00;;;;;;5074330;28;20442;-67
2021/01/07 12:50:40;;;;;;;19.25;13.48;;;9.00;63.30;;;;;;5074332;28;20028;-67